This is the latest recevied weather packets stored in our database for station/object G7GQA-4. If no packets are shown the sender has not sent any weather packets the latest 10 day(s).
| Time | Temp. | Humidity | Pressure | Rain* | Wind** | Luminosity | Snow |
|---|---|---|---|---|---|---|---|
| 1778267719 | 12.78° C | 86% | - | 0 mm | - | 9 W/m² | - |
| 1778267119 | 12.78° C | 85% | - | 0 mm | - | 23 W/m² | - |
| 1778266519 | 12.78° C | 85% | - | 0 mm | - | 29 W/m² | - |
| 1778265919 | 12.78° C | 86% | - | 0 mm | - | 29 W/m² | - |
| 1778265319 | 12.78° C | 86% | - | 0 mm | - | 34 W/m² | - |
| 1778264719 | 12.78° C | 86% | - | 0 mm | - | 51 W/m² | - |
| 1778264119 | 12.78° C | 85% | - | 0 mm | - | 71 W/m² | - |
| 1778263519 | 12.78° C | 86% | - | 0 mm | - | 76 W/m² | - |
| 1778262919 | 12.78° C | 86% | - | 0.51 mm | - | 75 W/m² | - |
| 1778262319 | 12.78° C | 86% | - | 0.76 mm | - | 83 W/m² | - |
| 1778261731 | 12.78° C | 87% | - | 2.03 mm | - | 124 W/m² | - |
| 1778261131 | 12.78° C | 88% | - | 3.3 mm | - | 110 W/m² | - |
| 1778260531 | 12.78° C | 89% | - | 3.3 mm | - | 134 W/m² | - |
| 1778259931 | 12.22° C | 89% | - | 3.3 mm | - | 102 W/m² | - |
| 1778259331 | 12.22° C | 89% | - | 2.79 mm | - | 55 W/m² | - |
| 1778258731 | 13.33° C | 86% | - | 2.29 mm | - | 131 W/m² | - |
| 1778258131 | 15.56° C | 75% | - | 2.29 mm | - | 122 W/m² | - |
| 1778257532 | 16.67° C | 74% | - | 1.27 mm | - | 395 W/m² | - |
| 1778256931 | 15.56° C | 78% | - | 1.27 mm | - | 262 W/m² | - |
| 1778256331 | 15° C | 81% | - | 1.27 mm | - | 248 W/m² | - |
| 1778255731 | 14.44° C | 84% | - | 1.27 mm | - | 294 W/m² | - |
| 1778255131 | 15° C | 84% | - | 1.27 mm | - | 366 W/m² | - |
| 1778254531 | 16.11° C | 74% | - | 0 mm | - | 198 W/m² | - |
| 1778253931 | 16.67° C | 65% | - | 0 mm | - | 103 W/m² | - |
| 1778253331 | 17.22° C | 59% | - | 0 mm | - | 169 W/m² | - |
* Rain latest hour (hover to see other rain measurements)
** Current wind speed in m/s (hover to see current wind gust speed)